createdAt,value
2023-01-20T00:01:44.990Z,17.15
2023-01-20T00:04:15.015Z,16.37
2023-01-20T00:06:43.637Z,16.42
2023-01-20T00:09:14.148Z,15.72
2023-01-20T00:11:44.467Z,16.10
2023-01-20T00:14:13.768Z,15.55
2023-01-20T00:16:43.301Z,16.57
2023-01-20T00:19:15.363Z,15.55
2023-01-20T00:21:46.824Z,15.53
2023-01-20T00:24:19.508Z,15.77
2023-01-20T00:26:47.744Z,15.58
2023-01-20T00:29:17.087Z,15.25
2023-01-20T00:31:45.357Z,16.60
2023-01-20T00:34:13.575Z,40.98
2023-01-20T00:36:41.804Z,17.23
2023-01-20T00:39:10.043Z,15.30
2023-01-20T00:41:38.256Z,16.55
2023-01-20T00:44:06.468Z,14.65
2023-01-20T00:46:34.740Z,14.75
2023-01-20T00:49:02.954Z,14.73
2023-01-20T00:51:31.159Z,16.37
2023-01-20T00:53:59.358Z,13.90
2023-01-20T00:56:27.571Z,14.40
2023-01-20T00:58:55.772Z,14.13
2023-01-20T01:01:24.212Z,14.60
2023-01-20T01:03:54.228Z,15.70
2023-01-20T01:06:23.531Z,14.65
2023-01-20T01:08:52.786Z,13.70
2023-01-20T01:11:21.037Z,14.43
2023-01-20T01:13:49.252Z,14.65
2023-01-20T01:16:17.584Z,14.73
2023-01-20T01:18:45.864Z,15.48
2023-01-20T01:21:15.565Z,14.43
2023-01-20T01:23:44.200Z,16.30
2023-01-20T01:26:13.351Z,14.63
2023-01-20T01:28:41.569Z,15.38
2023-01-20T01:31:09.845Z,16.45
2023-01-20T01:33:38.301Z,16.00
2023-01-20T01:36:08.281Z,14.47
2023-01-20T01:38:36.508Z,15.98
2023-01-20T01:41:04.799Z,15.60
2023-01-20T01:43:34.554Z,15.45
2023-01-20T01:46:02.893Z,15.83
2023-01-20T01:48:38.266Z,15.45
2023-01-20T01:51:08.243Z,15.30
2023-01-20T01:53:41.005Z,16.05
2023-01-20T01:56:09.279Z,16.05
2023-01-20T01:58:39.014Z,15.03
2023-01-20T02:01:07.297Z,16.05
2023-01-20T02:03:42.787Z,16.73
2023-01-20T02:06:11.369Z,16.02
2023-01-20T02:08:39.664Z,16.37
2023-01-20T02:11:07.876Z,16.73
2023-01-20T02:13:36.155Z,15.08
2023-01-20T02:16:05.955Z,16.23
2023-01-20T02:18:44.673Z,16.10
2023-01-20T02:21:23.335Z,16.30
2023-01-20T02:23:53.371Z,16.15
2023-01-20T02:26:23.121Z,16.45
2023-01-20T02:29:04.628Z,15.75
2023-01-20T02:31:50.967Z,16.93
2023-01-20T02:34:26.602Z,16.37
2023-01-20T02:36:56.470Z,17.12
2023-01-20T02:39:27.627Z,17.62
2023-01-20T02:42:09.406Z,17.20
2023-01-20T02:44:41.877Z,17.02
2023-01-20T02:49:39.087Z,17.55
2023-01-20T02:52:14.570Z,17.10
2023-01-20T02:54:44.315Z,17.35
2023-01-20T02:57:14.049Z,17.37
2023-01-20T02:59:43.787Z,17.35
2023-01-20T03:02:13.524Z,16.70
2023-01-20T03:04:43.275Z,17.17
2023-01-20T03:07:12.555Z,16.67
2023-01-20T03:09:45.209Z,16.85
2023-01-20T03:12:22.152Z,17.50
2023-01-20T03:14:51.794Z,17.42
2023-01-20T03:17:20.572Z,16.93
2023-01-20T03:19:48.875Z,16.93
2023-01-20T03:22:17.338Z,19.37
2023-01-20T03:24:47.023Z,17.17
2023-01-20T03:27:15.429Z,17.15
2023-01-20T03:29:43.621Z,19.20
2023-01-20T03:32:12.306Z,18.25
2023-01-20T03:34:42.395Z,18.45
2023-01-20T03:37:11.767Z,17.75
2023-01-20T03:39:40.418Z,17.55
2023-01-20T03:42:10.155Z,16.57
2023-01-20T03:44:42.862Z,16.67
2023-01-20T03:47:12.624Z,17.52
2023-01-20T03:49:42.364Z,17.62
2023-01-20T03:52:12.113Z,17.85
2023-01-20T03:54:44.552Z,17.60
2023-01-20T03:59:41.325Z,16.62
2023-01-20T04:02:11.139Z,18.37
2023-01-20T04:04:40.539Z,17.85
2023-01-20T04:07:10.294Z,15.95
2023-01-20T04:09:40.043Z,17.30
2023-01-20T04:12:08.347Z,15.88
2023-01-20T04:14:37.121Z,16.05
2023-01-20T04:17:06.971Z,17.55
2023-01-20T04:19:35.205Z,17.20
2023-01-20T04:22:16.922Z,16.70
2023-01-20T04:24:55.706Z,15.60
2023-01-20T04:27:24.008Z,16.97
2023-01-20T04:29:53.082Z,16.20
2023-01-20T04:32:21.298Z,14.25
2023-01-20T04:34:51.863Z,14.80
2023-01-20T04:37:20.048Z,16.05
2023-01-20T04:39:48.254Z,17.07
2023-01-20T04:42:16.485Z,17.67
2023-01-20T04:44:45.467Z,16.95
2023-01-20T04:47:13.673Z,17.40
2023-01-20T04:49:41.881Z,15.85
2023-01-20T04:52:10.091Z,16.93
2023-01-20T04:54:38.289Z,15.60
2023-01-20T04:57:07.000Z,17.48
2023-01-20T04:59:35.206Z,17.40
2023-01-20T05:02:03.498Z,18.30
2023-01-20T05:04:31.735Z,17.05
2023-01-20T05:06:59.956Z,17.80
2023-01-20T05:09:28.161Z,38.10
2023-01-20T05:11:56.407Z,21.25
2023-01-20T05:14:24.668Z,19.90
2023-01-20T05:16:52.859Z,18.50
2023-01-20T05:19:21.058Z,21.65
2023-01-20T05:21:49.274Z,24.10
2023-01-20T05:24:17.555Z,18.85
2023-01-20T05:26:45.801Z,17.23
2023-01-20T05:29:14.014Z,16.60
2023-01-20T05:31:43.291Z,17.85
2023-01-20T05:34:12.028Z,17.15
2023-01-20T05:36:40.236Z,17.73
2023-01-20T05:39:08.435Z,17.57
2023-01-20T05:41:36.663Z,17.37
2023-01-20T05:44:04.867Z,17.62
2023-01-20T05:46:33.112Z,16.90
2023-01-20T05:49:02.865Z,17.10
2023-01-20T05:51:32.018Z,18.75
2023-01-20T05:54:00.246Z,16.87
2023-01-20T05:56:28.459Z,18.10
2023-01-20T05:58:56.693Z,15.30
2023-01-20T06:01:25.095Z,17.67
2023-01-20T06:03:53.329Z,16.48
2023-01-20T06:06:21.604Z,15.65
2023-01-20T06:08:51.352Z,26.23
2023-01-20T06:11:20.495Z,15.80
2023-01-20T06:13:48.709Z,15.90
2023-01-20T06:16:17.860Z,18.05
2023-01-20T06:18:46.205Z,19.60
2023-01-20T06:21:14.421Z,19.05
2023-01-20T06:23:42.642Z,25.75
2023-01-20T06:26:14.489Z,16.30
2023-01-20T06:28:42.982Z,17.23
2023-01-20T06:31:12.955Z,19.45
2023-01-20T06:33:41.236Z,40.63
2023-01-20T06:36:11.653Z,19.80
2023-01-20T06:38:39.927Z,17.20
2023-01-20T06:41:10.681Z,18.57
2023-01-20T06:43:41.749Z,17.23
2023-01-20T06:46:11.601Z,17.30
2023-01-20T06:48:39.867Z,15.88
2023-01-20T06:51:09.645Z,16.48
2023-01-20T06:53:37.814Z,15.35
2023-01-20T06:56:06.213Z,16.25
2023-01-20T06:58:34.584Z,16.82
2023-01-20T07:01:10.509Z,17.32
2023-01-20T07:03:40.052Z,16.48
2023-01-20T07:06:15.797Z,16.65
2023-01-20T07:08:44.470Z,17.65
2023-01-20T07:11:13.062Z,16.02
2023-01-20T07:13:43.616Z,15.83
2023-01-20T07:16:15.147Z,15.93
2023-01-20T07:18:42.169Z,16.40
2023-01-20T07:21:11.943Z,18.27
2023-01-20T07:23:40.543Z,17.27
2023-01-20T07:26:10.303Z,16.37
2023-01-20T07:28:38.796Z,16.73
2023-01-20T07:31:14.469Z,18.05
2023-01-20T07:33:43.133Z,17.45
2023-01-20T07:36:12.027Z,18.92
2023-01-20T07:38:40.457Z,17.12
2023-01-20T07:41:14.812Z,16.52
2023-01-20T07:43:43.862Z,13.50
2023-01-20T07:46:12.085Z,18.42
2023-01-20T07:48:40.401Z,16.50
2023-01-20T07:51:10.066Z,18.30
2023-01-20T07:53:43.421Z,16.70
2023-01-20T07:56:12.389Z,16.57
2023-01-20T07:58:42.876Z,17.20
2023-01-20T08:01:12.906Z,16.62
2023-01-20T08:03:41.429Z,16.30
2023-01-20T08:06:10.904Z,18.10
2023-01-20T08:08:41.511Z,17.55
2023-01-20T08:11:11.158Z,17.62
2023-01-20T08:13:39.489Z,16.35
2023-01-20T08:16:09.411Z,17.20
2023-01-20T08:18:37.904Z,16.60
2023-01-20T08:21:08.101Z,17.12
2023-01-20T08:23:36.789Z,16.87
2023-01-20T08:26:05.866Z,15.90
2023-01-20T08:28:35.254Z,17.40
2023-01-20T08:31:05.114Z,17.82
2023-01-20T08:33:33.449Z,16.87
2023-01-20T08:36:11.905Z,17.05
2023-01-20T08:38:40.205Z,15.45
2023-01-20T08:41:09.097Z,17.80
2023-01-20T08:43:37.473Z,16.80
2023-01-20T08:46:07.551Z,14.73
2023-01-20T08:48:36.515Z,15.40
2023-01-20T08:51:07.391Z,15.55
2023-01-20T08:53:36.039Z,13.58
2023-01-20T08:56:04.550Z,15.68
2023-01-20T08:58:32.804Z,14.30
2023-01-20T09:01:01.148Z,16.07
2023-01-20T09:03:29.867Z,15.63
2023-01-20T09:06:00.427Z,14.35
2023-01-20T09:08:29.456Z,16.30
2023-01-20T09:11:05.178Z,16.00
2023-01-20T09:13:33.604Z,15.30
2023-01-20T09:16:01.959Z,16.15
2023-01-20T09:18:31.798Z,17.65
2023-01-20T09:21:00.572Z,15.88
2023-01-20T09:23:29.328Z,16.32
2023-01-20T09:25:59.082Z,14.55
2023-01-20T09:28:30.171Z,15.93
2023-01-20T09:31:05.280Z,15.83
2023-01-20T09:33:35.930Z,13.68
2023-01-20T09:36:04.653Z,9.88
2023-01-20T09:38:50.417Z,8.10
2023-01-20T09:41:46.229Z,7.40
2023-01-20T09:44:16.148Z,9.10
2023-01-20T09:47:20.219Z,9.80
2023-01-20T09:50:24.686Z,12.95
2023-01-20T09:53:06.304Z,12.93
2023-01-20T09:55:47.980Z,11.33
2023-01-20T09:58:17.757Z,10.95
2023-01-20T10:00:47.510Z,13.55
2023-01-20T10:03:20.206Z,12.23
2023-01-20T10:05:50.324Z,11.80
2023-01-20T10:08:20.144Z,11.73
2023-01-20T10:10:58.662Z,11.00
2023-01-20T10:13:28.987Z,10.98
2023-01-20T10:15:57.616Z,11.30
2023-01-20T10:18:30.268Z,10.08
2023-01-20T10:21:00.052Z,11.25
2023-01-20T10:23:29.802Z,11.10
2023-01-20T10:25:59.591Z,10.70
2023-01-20T10:28:28.851Z,8.50
2023-01-20T10:30:58.830Z,9.13
2023-01-20T10:33:28.580Z,9.88
2023-01-20T10:35:57.639Z,9.60
2023-01-20T10:38:33.336Z,9.05
2023-01-20T10:41:03.097Z,9.78
2023-01-20T10:43:31.504Z,9.55
2023-01-20T10:46:07.677Z,10.10
2023-01-20T10:48:52.316Z,9.58
2023-01-20T10:51:24.925Z,9.05
2023-01-20T10:54:11.289Z,9.23
2023-01-20T10:56:42.973Z,8.65
2023-01-20T10:59:15.370Z,6.80
2023-01-20T11:01:45.232Z,9.80
2023-01-20T11:04:17.997Z,9.65
2023-01-20T11:06:47.772Z,10.08
2023-01-20T11:09:20.276Z,7.95
2023-01-20T11:14:16.440Z,8.80
2023-01-20T11:16:46.536Z,5.53
2023-01-20T11:19:14.882Z,8.53
2023-01-20T11:21:43.133Z,10.23
2023-01-20T11:24:27.852Z,9.78
2023-01-20T11:26:57.639Z,9.35
2023-01-20T11:29:29.815Z,9.58
2023-01-20T11:31:59.470Z,9.20
2023-01-20T11:34:31.739Z,9.60
2023-01-20T11:37:07.382Z,9.60
2023-01-20T11:39:37.142Z,9.55
2023-01-20T11:42:21.912Z,9.63
2023-01-20T11:44:51.671Z,7.15
2023-01-20T11:47:24.676Z,7.10
2023-01-20T11:50:06.212Z,8.68
2023-01-20T11:52:35.956Z,8.78
2023-01-20T11:55:14.530Z,10.90
2023-01-20T11:57:48.042Z,6.53
2023-01-20T12:00:20.825Z,9.53
2023-01-20T12:03:01.607Z,7.03
2023-01-20T12:05:31.358Z,6.42
2023-01-20T12:08:00.409Z,11.73
2023-01-20T12:10:30.171Z,10.13
2023-01-20T12:13:00.015Z,9.73
2023-01-20T12:15:35.528Z,10.08
2023-01-20T12:18:05.280Z,6.17
2023-01-20T12:20:54.459Z,6.60
2023-01-20T12:23:28.009Z,10.68
2023-01-20T12:26:00.737Z,7.87
2023-01-20T12:28:30.520Z,11.43
2023-01-20T12:31:00.000Z,8.10
2023-01-20T12:33:35.928Z,7.87
2023-01-20T12:36:11.389Z,7.92
2023-01-20T12:38:43.819Z,4.87
2023-01-20T12:43:43.996Z,5.15
2023-01-20T12:46:19.503Z,5.03
2023-01-20T12:48:58.174Z,6.72
2023-01-20T12:51:27.925Z,6.55
2023-01-20T12:54:12.753Z,7.85
2023-01-20T12:56:42.520Z,8.65
2023-01-20T12:59:14.641Z,6.85
2023-01-20T13:01:47.424Z,9.43
2023-01-20T13:04:33.627Z,7.30
2023-01-20T13:07:09.371Z,8.23
2023-01-20T13:09:48.048Z,5.72
2023-01-20T13:12:17.793Z,5.30
2023-01-20T13:14:47.564Z,5.62
2023-01-20T13:17:20.259Z,8.85
2023-01-20T13:19:49.817Z,5.65
2023-01-20T13:22:23.609Z,3.33
2023-01-20T13:24:53.481Z,4.97
2023-01-20T13:27:23.221Z,6.05
2023-01-20T13:29:53.544Z,3.30
2023-01-20T13:32:29.302Z,3.00
2023-01-20T13:34:58.169Z,6.50
2023-01-20T13:37:28.067Z,4.62
2023-01-20T13:39:57.800Z,6.42
2023-01-20T13:42:33.525Z,9.45
2023-01-20T13:45:11.997Z,4.62
2023-01-20T13:47:53.972Z,8.53
2023-01-20T13:50:35.285Z,7.62
2023-01-20T13:53:14.182Z,7.00
2023-01-20T13:55:43.938Z,4.47
2023-01-20T13:58:15.394Z,5.58
2023-01-20T14:00:43.972Z,4.90
2023-01-20T14:03:16.660Z,10.82
2023-01-20T14:05:46.435Z,7.60
2023-01-20T14:08:15.285Z,5.65
2023-01-20T14:10:43.876Z,7.12
2023-01-20T14:13:12.562Z,6.30
2023-01-20T14:15:41.032Z,3.52
2023-01-20T14:18:13.585Z,7.53
2023-01-20T14:23:24.434Z,7.28
2023-01-20T14:26:06.006Z,4.92
2023-01-20T14:28:35.469Z,5.65
2023-01-20T14:31:17.459Z,11.18
2023-01-20T14:33:50.075Z,6.47
2023-01-20T14:36:19.000Z,9.28
2023-01-20T14:38:57.219Z,6.90
2023-01-20T14:41:32.124Z,6.15
2023-01-20T14:44:00.872Z,5.30
2023-01-20T14:46:30.721Z,5.95
2023-01-20T14:48:59.777Z,11.68
2023-01-20T14:51:28.048Z,8.55
2023-01-20T14:54:13.956Z,8.75
2023-01-20T14:56:43.745Z,10.70
2023-01-20T14:59:13.463Z,9.05
2023-01-20T15:01:41.732Z,8.08
2023-01-20T15:04:11.627Z,8.73
2023-01-20T15:06:39.842Z,7.10
2023-01-20T15:09:11.348Z,11.12
2023-01-20T15:11:39.564Z,8.27
2023-01-20T15:14:08.845Z,7.90
2023-01-20T15:16:45.757Z,11.08
2023-01-20T15:19:16.059Z,7.92
2023-01-20T15:21:51.776Z,12.88
2023-01-20T15:24:30.759Z,8.25
2023-01-20T15:27:03.926Z,5.97
2023-01-20T15:29:36.424Z,6.90
2023-01-20T15:34:33.194Z,5.92
2023-01-20T15:37:01.473Z,10.20
2023-01-20T15:39:30.154Z,7.03
2023-01-20T15:41:59.000Z,5.97
2023-01-20T15:44:27.426Z,11.22
2023-01-20T15:46:57.515Z,6.20
2023-01-20T15:49:25.804Z,5.78
2023-01-20T15:51:54.001Z,6.15
2023-01-20T15:54:22.297Z,3.95
2023-01-20T15:56:50.520Z,9.65
2023-01-20T15:59:21.269Z,5.53
2023-01-20T16:01:50.112Z,5.37
2023-01-20T16:04:18.504Z,6.62
2023-01-20T16:06:46.717Z,6.70
2023-01-20T16:09:16.528Z,10.90
2023-01-20T16:11:44.742Z,4.03
2023-01-20T16:14:13.003Z,10.55
2023-01-20T16:16:41.233Z,10.85
2023-01-20T16:19:10.961Z,5.70
2023-01-20T16:21:39.220Z,4.95
2023-01-20T16:24:07.604Z,10.35
2023-01-20T16:26:36.000Z,5.03
2023-01-20T16:29:07.269Z,6.20
2023-01-20T16:31:35.500Z,10.08
2023-01-20T16:34:04.866Z,11.08
2023-01-20T16:36:33.069Z,6.33
2023-01-20T16:39:01.372Z,8.08
2023-01-20T16:41:31.894Z,9.88
2023-01-20T16:44:00.126Z,8.83
2023-01-20T16:46:29.298Z,11.30
2023-01-20T16:48:59.319Z,6.25
2023-01-20T16:51:28.216Z,6.45
2023-01-20T16:53:57.469Z,8.45
2023-01-20T16:56:27.486Z,9.48
2023-01-20T16:58:57.559Z,12.95
2023-01-20T17:01:26.346Z,7.28
2023-01-20T17:03:55.852Z,6.20
2023-01-20T17:06:25.608Z,9.48
2023-01-20T17:08:54.760Z,10.58
2023-01-20T17:11:24.229Z,12.10
2023-01-20T17:13:52.607Z,7.92
2023-01-20T17:16:21.228Z,8.43
2023-01-20T17:18:50.362Z,7.00
2023-01-20T17:21:20.505Z,7.87
2023-01-20T17:23:52.319Z,8.10
2023-01-20T17:26:21.172Z,4.42
2023-01-20T17:28:54.549Z,6.60
2023-01-20T17:31:22.836Z,8.33
2023-01-20T17:33:51.206Z,10.10
2023-01-20T17:36:20.148Z,14.40
2023-01-20T17:38:48.763Z,13.32
2023-01-20T17:41:17.756Z,10.82
2023-01-20T17:43:47.754Z,12.20
2023-01-20T17:46:24.070Z,15.18
2023-01-20T17:48:53.301Z,9.60
2023-01-20T17:51:24.262Z,14.40
2023-01-20T17:53:52.625Z,15.65
2023-01-20T17:56:22.650Z,17.42
2023-01-20T17:58:55.229Z,16.40
2023-01-20T18:01:25.776Z,15.23
2023-01-20T18:03:58.901Z,14.95
2023-01-20T18:06:28.437Z,15.30
2023-01-20T18:08:59.077Z,15.08
2023-01-20T18:11:29.894Z,14.98
2023-01-20T18:14:07.239Z,15.23
2023-01-20T18:16:38.876Z,16.50
2023-01-20T18:19:13.699Z,16.00
2023-01-20T18:21:44.270Z,16.60
2023-01-20T18:24:13.339Z,16.82
2023-01-20T18:26:42.954Z,16.30
2023-01-20T18:29:12.744Z,17.85
2023-01-20T18:31:41.884Z,17.17
2023-01-20T18:34:12.867Z,18.98
2023-01-20T18:36:44.755Z,19.02
2023-01-20T18:39:17.266Z,19.23
2023-01-20T18:41:47.150Z,18.30
2023-01-20T18:44:16.383Z,18.67
2023-01-20T18:46:45.887Z,15.63
2023-01-20T18:49:20.580Z,18.48
2023-01-20T18:51:48.880Z,17.70
2023-01-20T18:54:21.318Z,17.95
2023-01-20T18:56:52.004Z,20.20
2023-01-20T18:59:20.282Z,18.77
2023-01-20T19:01:49.381Z,17.37
2023-01-20T19:04:17.676Z,20.50
2023-01-20T19:06:48.065Z,22.00
2023-01-20T19:09:17.217Z,21.95
2023-01-20T19:11:46.499Z,20.37
2023-01-20T19:14:15.695Z,21.45
2023-01-20T19:16:48.572Z,29.90
2023-01-20T19:19:17.863Z,20.68
2023-01-20T19:21:48.568Z,20.97
2023-01-20T19:24:19.921Z,21.48
2023-01-20T19:26:49.056Z,18.85
2023-01-20T19:29:18.649Z,19.05
2023-01-20T19:31:48.944Z,20.05
2023-01-20T19:34:17.246Z,17.42
2023-01-20T19:36:52.887Z,17.75
2023-01-20T19:39:22.039Z,17.75
2023-01-20T19:41:51.342Z,16.40
2023-01-20T19:44:20.550Z,17.10
2023-01-20T19:46:48.786Z,18.77
2023-01-20T19:49:17.897Z,17.50
2023-01-20T19:51:48.117Z,19.25
2023-01-20T19:54:20.751Z,18.17
2023-01-20T19:56:49.895Z,19.95
2023-01-20T19:59:18.532Z,21.33
2023-01-20T20:01:47.435Z,22.27
2023-01-20T20:04:18.080Z,26.12
2023-01-20T20:06:48.808Z,27.37
2023-01-20T20:09:19.862Z,33.35
2023-01-20T20:11:49.036Z,30.20
2023-01-20T20:14:19.064Z,30.62
2023-01-20T20:16:48.645Z,30.25
2023-01-20T20:19:18.805Z,29.20
2023-01-20T20:21:47.913Z,26.75
2023-01-20T20:24:18.072Z,24.00
2023-01-20T20:26:48.270Z,28.80
2023-01-20T20:29:18.698Z,29.55
2023-01-20T20:31:48.173Z,29.37
2023-01-20T20:34:18.725Z,24.20
2023-01-20T20:36:48.484Z,23.10
2023-01-20T20:39:18.903Z,20.20
2023-01-20T20:41:49.477Z,23.38
2023-01-20T20:44:19.989Z,21.42
2023-01-20T20:46:48.848Z,20.72
2023-01-20T20:49:17.184Z,19.98
2023-01-20T20:51:45.707Z,20.00
2023-01-20T20:54:16.949Z,24.72
2023-01-20T20:56:45.788Z,21.05
2023-01-20T20:59:14.041Z,21.97
2023-01-20T21:01:44.492Z,24.45
2023-01-20T21:04:12.807Z,25.80
2023-01-20T21:06:41.075Z,25.10
2023-01-20T21:09:09.776Z,27.65
2023-01-20T21:11:38.634Z,21.00
2023-01-20T21:14:07.417Z,23.42
2023-01-20T21:16:35.647Z,21.20
2023-01-20T21:19:04.948Z,19.95
2023-01-20T21:21:33.167Z,20.37
2023-01-20T21:24:01.411Z,18.45
2023-01-20T21:26:30.736Z,17.60
2023-01-20T21:29:01.063Z,16.82
2023-01-20T21:31:30.686Z,16.67
2023-01-20T21:34:00.132Z,18.17
2023-01-20T21:36:28.848Z,17.12
2023-01-20T21:38:58.502Z,17.17
2023-01-20T21:41:26.740Z,18.62
2023-01-20T21:44:12.740Z,17.20
2023-01-20T21:46:41.053Z,16.87
2023-01-20T21:49:27.616Z,17.75
2023-01-20T21:52:14.111Z,16.62
2023-01-20T21:54:44.072Z,17.45
2023-01-20T21:57:12.302Z,17.67
2023-01-20T21:59:40.530Z,19.02
2023-01-20T22:02:09.080Z,17.82
2023-01-20T22:04:37.401Z,17.25
2023-01-20T22:07:05.611Z,17.10
2023-01-20T22:09:33.849Z,17.35
2023-01-20T22:12:02.065Z,17.90
2023-01-20T22:14:32.180Z,17.10
2023-01-20T22:17:00.591Z,18.57
2023-01-20T22:19:28.855Z,18.23
2023-01-20T22:21:57.078Z,18.15
2023-01-20T22:24:25.401Z,18.15
2023-01-20T22:26:53.770Z,18.57
2023-01-20T22:29:22.361Z,19.60
2023-01-20T22:31:54.466Z,18.77
2023-01-20T22:34:22.911Z,19.73
2023-01-20T22:36:51.158Z,18.42
2023-01-20T22:39:19.421Z,18.48
2023-01-20T22:41:47.642Z,17.62
2023-01-20T22:44:16.004Z,19.73
2023-01-20T22:46:44.222Z,18.07
2023-01-20T22:49:12.770Z,18.48
2023-01-20T22:51:41.014Z,19.92
2023-01-20T22:54:10.592Z,17.90
2023-01-20T22:56:39.249Z,16.85
2023-01-20T22:59:07.529Z,17.23
2023-01-20T23:01:36.100Z,18.52
2023-01-20T23:04:05.406Z,17.55
2023-01-20T23:06:35.148Z,18.48
2023-01-20T23:09:05.109Z,17.77
2023-01-20T23:11:33.843Z,17.07
2023-01-20T23:14:02.123Z,17.98
2023-01-20T23:16:30.381Z,17.40
2023-01-20T23:18:58.587Z,17.35
2023-01-20T23:21:26.951Z,17.67
2023-01-20T23:23:55.241Z,17.85
2023-01-20T23:26:25.004Z,17.87
2023-01-20T23:28:53.811Z,17.48
2023-01-20T23:31:23.531Z,17.95
2023-01-20T23:33:53.442Z,16.52
2023-01-20T23:36:23.005Z,16.30
2023-01-20T23:38:56.072Z,18.30
2023-01-20T23:41:25.028Z,16.12
2023-01-20T23:43:53.346Z,17.27
2023-01-20T23:46:21.718Z,16.70
2023-01-20T23:48:49.948Z,17.40
2023-01-20T23:51:18.243Z,17.12
2023-01-20T23:53:46.664Z,16.10
2023-01-20T23:56:16.411Z,17.05
2023-01-20T23:58:44.744Z,15.70
